Bookmark and Share
Track history (hours):
 

Stena Atlantica

Last reported at 2014-Apr-16 09:15 UTC. Time now 2014-Apr-19 02:13 UTC.
Position N 59°58' E 027°00'.

Length 245 m; draft 8 m.

Type: Tanker. MMSI: 319161000.

NotesDate/timePositionNaut miles runAvg speedWind from/ knotsBaromVisibWave heightAir tempDewpointWater temp
2014-Apr-16 09:15N 59°58' E 027°00'913.2
2014-Apr-16 08:33N 59°59' E 026°42'1312.9
2014-Apr-16 07:34N 59°56' E 026°17'3913.1
2014-Apr-16 04:33N 59°47' E 025°01'1312.8
2014-Apr-16 03:33N 59°44' E 024°36'1312.7
2014-Apr-16 02:34N 59°41' E 024°12'1312.7
2014-Apr-16 01:33N 59°37' E 023°48'1312.8
2014-Apr-16 00:33N 59°33' E 023°24'1312.7
2014-Apr-15 23:33N 59°29' E 022°60'29111.2
2014-Apr-14 21:34N 56°01' E 016°40'1312.6
2014-Apr-14 20:34N 55°54' E 016°21'1312.8
2014-Apr-14 19:34N 55°46' E 016°03'3912.9
2014-Apr-14 16:34N 55°26' E 015°05'1312.7
2014-Apr-14 15:34N 55°20' E 014°45'1111.4
2014-Apr-14 14:34N 55°12' E 014°30'1313.1
2014-Apr-14 13:33N 55°04' E 014°12'2612.9
2014-Apr-14 11:33N 54°54' E 013°31'1312.9
2014-Apr-14 10:33N 54°50' E 013°10'1313.0
2014-Apr-14 09:34N 54°45' E 012°49'1313.2
2014-Apr-14 08:34N 54°39' E 012°28'1413.5
2014-Apr-14 07:34N 54°29' E 012°14'1312.6
2014-Apr-14 06:34N 54°24' E 011°54'1413.8
2014-Apr-14 05:33N 54°29' E 011°31'12912.3
2014-Apr-13 19:07N 56°37' E 011°44'611.4
2014-Apr-13 18:33N 56°43' E 011°51'1312.7
2014-Apr-13 17:32N 56°55' E 011°46'1313.5
2014-Apr-13 16:33N 57°08' E 011°38'1413.9
2014-Apr-13 15:33N 57°21' E 011°27'1312.9
2014-Apr-13 14:33N 57°31' E 011°13'1313.4
2014-Apr-13 13:33N 57°37' E 010°51'9 8.6
2014-Apr-13 12:33N 57°45' E 010°46'1010.2
2014-Apr-13 11:33N 57°47' E 010°27'1313.4
2014-Apr-13 10:33N 57°47' E 010°02'7313.6
2014-Apr-13 05:09N 57°14' E 007°59'23212.2
2014-Apr-12 10:14N 53°54' E 004°34'912.7
2014-Apr-12 09:31N 53°47' E 004°23'1312.8
2014-Apr-12 08:33N 53°40' E 004°07'1412.8
2014-Apr-12 07:26N 53°31' E 003°48'3612.5
2014-Apr-12 04:33N 52°58' E 003°23'1413.2
2014-Apr-12 03:30N 52°46' E 003°13'1413.7
2014-Apr-12 02:31N 52°32' E 003°09'1212.2
2014-Apr-12 01:32N 52°21' E 003°16'1313.5
2014-Apr-12 00:33N 52°11' E 003°29'1312.5
2014-Apr-11 23:33N 52°04' E 003°47'1110.8
2014-Apr-11 22:33N 51°60' E 004°02'2 2.0
2014-Apr-11 21:33N 51°58' E 004°04'0 0.0
2014-Apr-11 11:16N 51°58' E 004°04'0 0.0
2014-Apr-11 10:16N 51°58' E 004°04'0 0.0
2014-Apr-11 09:31N 51°58' E 004°04'0 0.0
2014-Apr-11 04:19N 51°58' E 004°04'0 0.0
2014-Apr-11 01:31N 51°58' E 004°04'0 0.0
2014-Apr-10 21:16N 51°58' E 004°04'0 0.0
2014-Apr-10 19:04N 51°58' E 004°04'0 0.0
2014-Apr-10 15:05N 51°58' E 004°04'0 0.3
2014-Apr-10 14:33N 51°58' E 004°04'5 5.1
2014-Apr-10 13:33N 52°00' E 003°57'9 9.3
2014-Apr-10 12:33N 51°58' E 003°42'3 2.7
2014-Apr-10 11:33N 51°57' E 003°39'3 3.3
2014-Apr-10 10:33N 51°57' E 003°33'30 9.9
2014-Apr-10 07:33N 51°48' E 002°47'44211.5
2014-Apr-08 17:04N 57°49' E 010°09'712.8
2014-Apr-08 16:32N 57°49' E 010°21'1212.4
2014-Apr-08 15:33N 57°48' E 010°44'1010.3
2014-Apr-08 14:33N 57°42' E 010°59'1312.5
2014-Apr-08 13:33N 57°33' E 011°16'1212.4
2014-Apr-08 12:33N 57°23' E 011°30'1313.5
2014-Apr-08 11:33N 57°10' E 011°38'1313.3
2014-Apr-08 10:33N 56°58' E 011°46'1313.3
2014-Apr-08 09:33N 56°45' E 011°51'13110.7
2014-Apr-07 21:14N 54°36' E 011°06'812.4
2014-Apr-07 20:33N 54°33' E 011°20'1313.0
2014-Apr-07 19:33N 54°28' E 011°41'2010.2
2014-Apr-07 17:34N 54°33' E 012°15'1010.3
2014-Apr-07 16:33N 54°40' E 012°27'1010.3
2014-Apr-07 15:33N 54°45' E 012°43'1110.5
2014-Apr-07 14:33N 54°51' E 012°59'1312.9
2014-Apr-07 13:33N 54°56' E 013°19'1313.0
2014-Apr-07 12:33N 55°01' E 013°40'1312.8
2014-Apr-07 11:33N 55°05' E 014°01'1312.9
2014-Apr-07 10:33N 55°10' E 014°22'1212.3
2014-Apr-07 09:33N 55°19' E 014°37'9 8.8
2014-Apr-07 08:33N 55°18' E 014°53'1211.7
2014-Apr-07 07:33N 55°26' E 015°09'1211.5
2014-Apr-07 06:33N 55°29' E 015°28'  

Dump ship's entire track history

sailing weather and tide predictions

Stena Atlantica — ZCPR7 — position and weather